• Join FlightAware (Why Join?)
  • Login
  • US Flag 
02:01AM EDT


 

Airport Tracker/Info


-or-


 

Live Flight TrackerFlight Track Log ✈ DAL268 ✈ 03-Sep-2013 ✈ KSFO - KJFK

Flight Track Log - Related Links

Times and Time Zones

All times are in EDT time to prevent confusion due to time zone crossing. See the DAL268 flight status page for this flight to view local times or setup timezone preferences in your user account.

Time Position Orientation Groundspeed Altitude Reporting Facility
EDT Latitude Longitude Course Direction KTS MPH feet Rate Location/Type
02:40PM 37.6333 -122.3667 38° Northeast 215 247 900  Level Northern Cal TRACON
02:41PM 37.6667 -122.3000 58° Northeast 224 258 3,100 2,400 Climbing Northern Cal TRACON
02:42PM 37.7333 -122.2333 38° Northeast 273 314 5,700 2,400 Climbing Northern Cal TRACON
02:43PM 37.6380 -122.4313 119° Southeast  Level FlightAware Approximate
02:44PM 37.6712 -122.3122 38° Northeast  Level FlightAware Approximate
02:44PM 37.8389 -122.1261 39° Northeast 303 349 9,900  Level Oakland Center
02:45PM 37.7703 -122.2131 38° Northeast  Level FlightAware Approximate
02:45PM 37.9136 -122.0572 36° Northeast 327 376 11,600  Level Oakland Center
02:46PM 37.9964 -121.9767 37° Northeast 365 420 13,800 2,100 Climbing Oakland Center
02:47PM 38.0844 -121.8956 36° Northeast 388 447 16,000 2,040 Climbing Oakland Center
02:48PM 38.1919 -121.7897 38° Northeast 406 467 18,000 1,800 Climbing Oakland Center
02:49PM 38.2889 -121.7011 36° Northeast 426 490 19,800 1,980 Climbing Oakland Center
02:50PM 38.3847 -121.6061 38° Northeast 434 499 22,100 1,680 Climbing Oakland Center
02:51PM 38.4781 -121.4942 43° Northeast 450 518 23,300 1,200 Climbing Oakland Center
02:52PM 38.5522 -121.3683 53° Northeast 460 529 24,600 1,200 Climbing Oakland Center
02:53PM 38.6278 -121.2317 55° Northeast 468 539 25,800 1,320 Climbing Oakland Center
02:54PM 38.7203 -121.0747 53° Northeast 488 562 27,400 1,320 Climbing Oakland Center
02:55PM 38.8017 -120.9328 54° Northeast 492 566 28,600 1,320 Climbing Oakland Center
02:56PM 38.8839 -120.7908 53° Northeast 496 571 30,200 1,320 Climbing Oakland Center
02:57PM 38.9650 -120.6494 54° Northeast 494 568 31,400 1,140 Climbing Oakland Center
02:58PM 39.0478 -120.5058 53° Northeast 498 573 32,600 780 Climbing Oakland Center
02:59PM 39.1300 -120.3611 54° Northeast 501 577 33,000 180 Climbing Oakland Center
03:00PM 39.2300 -120.1858 54° Northeast 506 582 33,000  Level Oakland Center
03:01PM 39.3142 -120.0425 53° Northeast 505 581 33,000  Level Oakland Center
03:02PM 39.3969 -119.8961 54° Northeast 503 579 33,000 540 Level Oakland Center
03:03PM 39.4792 -119.7519 54° Northeast 499 574 34,200 1,080 Climbing Oakland Center
03:04PM 39.5592 -119.6050 55° Northeast 498 573 35,300 960 Climbing Oakland Center
03:05PM 39.6386 -119.4564 55° Northeast 512 589 36,200 780 Climbing Oakland Center
03:06PM 39.6967 -119.2953 65° Northeast 494 568 37,000 360 Climbing Oakland Center
03:07PM 39.7567 -119.1378 64° Northeast 486 559 37,000  Level Oakland Center
03:08PM 39.8181 -118.9794 63° Northeast 486 559 37,000  Level Oakland Center
03:09PM 39.8806 -118.8203 63° Northeast 489 563 37,000  Level Oakland Center
03:10PM 39.9544 -118.6275 63° Northeast 492 566 37,000  Level Oakland Center
03:11PM 40.0158 -118.4661 64° Northeast 493 567 37,000  Level Oakland Center
03:12PM 40.0744 -118.3044 65° Northeast 492 566 37,000  Level Oakland Center
03:13PM 40.1325 -118.1419 65° Northeast 492 566 37,000  Level Oakland Center
03:14PM 40.1922 -117.9808 64° Northeast 491 565 37,000  Level Oakland Center
03:15PM 40.2547 -117.8058 65° Northeast 490 564 37,000  Level Oakland Center
03:17PM 40.3192 -117.6269 65° Northeast 487 560 37,000  Level Salt Lake Center
03:18PM 40.3753 -117.4717 65° Northeast 490 564 37,000  Level Salt Lake Center
03:19PM 40.4306 -117.3161 65° Northeast 489 563 37,000  Level Salt Lake Center
03:20PM 40.4958 -117.1361 64° Northeast 488 562 37,000  Level Salt Lake Center
03:21PM 40.5522 -116.9783 65° Northeast 490 564 37,000  Level Salt Lake Center
03:22PM 40.6036 -116.8175 67° East 490 564 37,000  Level Salt Lake Center
03:23PM 40.6483 -116.6308 72° East 477 549 37,000  Level Salt Lake Center
03:24PM 40.6908 -116.4733 70° East 475 547 37,000  Level Salt Lake Center
03:25PM 40.7394 -116.2889 71° East 476 548 37,000  Level Salt Lake Center
03:26PM 40.7819 -116.1306 70° East 477 549 37,000  Level Salt Lake Center
03:27PM 40.8328 -115.9461 70° East 478 550 37,000  Level Salt Lake Center
03:28PM 40.8733 -115.7883 71° East 476 548 37,000  Level Salt Lake Center
03:29PM 40.9136 -115.6272 72° East 480 552 37,000  Level Salt Lake Center
03:30PM 40.9647 -115.4411 70° East 482 555 37,000  Level Salt Lake Center
03:31PM 41.0050 -115.2800 72° East 483 556 37,000  Level Salt Lake Center
03:32PM 41.0533 -115.0908 71° East 485 558 37,000  Level Salt Lake Center
03:33PM 41.0944 -114.9283 71° East 485 558 37,000  Level Salt Lake Center
03:34PM 41.1389 -114.7464 72° East 487 560 37,000  Level Salt Lake Center
03:35PM 41.1828 -114.5761 71° East 488 562 37,000  Level Salt Lake Center
03:36PM 41.2253 -114.4050 72° East 489 563 37,000  Level Salt Lake Center
03:37PM 41.2675 -114.2331 72° East 490 564 37,000 60 Level Salt Lake Center
03:38PM 41.3178 -114.0261 72° East 490 564 37,200 360 Climbing Salt Lake Center
03:39PM 41.3586 -113.8533 72° East 491 565 37,800 600 Climbing Salt Lake Center
03:40PM 41.3858 -113.6753 78° East 492 566 38,500 540 Climbing Salt Lake Center
03:41PM 41.4083 -113.4997 80° East 485 558 39,000 240 Climbing Salt Lake Center
03:42PM 41.4289 -113.3231 81° East 484 557 39,000  Level Salt Lake Center
03:43PM 41.4511 -113.1461 80° East 484 557 39,000  Level Salt Lake Center
03:45PM 41.4723 -112.9475 82° East  Level FlightAware Approximate
03:45PM 41.4931 -112.7983 82° East 475 547 39,000  Level Salt Lake Center
03:46PM 41.5214 -112.5900 80° East 474 545 39,000  Level Salt Lake Center
03:47PM 41.5461 -112.4194 79° East 470 541 39,000  Level Salt Lake Center
03:48PM 41.5706 -112.2472 79° East 471 542 39,000  Level Salt Lake Center
03:50PM 41.5942 -112.0742 80° East 472 543 39,000  Level Salt Lake Center
03:51PM 41.6175 -111.9011 80° East 472 543 39,000  Level Salt Lake Center
03:52PM 41.6408 -111.7286 80° East 471 542 39,000  Level Salt Lake Center
03:53PM 41.6633 -111.5547 80° East 472 543 39,000  Level Salt Lake Center
03:54PM 41.6861 -111.3808 80° East 474 545 39,000  Level Salt Lake Center
03:55PM 41.7094 -111.2072 80° East 474 545 39,000  Level Salt Lake Center
03:56PM 41.7361 -110.9975 80° East 476 548 39,000  Level Salt Lake Center
03:57PM 41.7592 -110.8164 80° East 477 549 39,000  Level Salt Lake Center
03:58PM 41.7797 -110.6494 81° East 476 548 39,000  Level Salt Lake Center
03:59PM 41.8003 -110.4833 81° East 474 545 39,000  Level Salt Lake Center
04:00PM 41.8239 -110.2861 81° East 477 549 39,000  Level Salt Lake Center
04:01PM 41.8442 -110.1192 81° East 475 547 39,000  Level Salt Lake Center
04:02PM 41.8672 -109.9236 81° East 475 547 39,000  Level Salt Lake Center
04:03PM 41.8878 -109.7553 81° East 476 548 39,000  Level Salt Lake Center
04:04PM 41.9075 -109.5875 81° East 475 547 39,000  Level Salt Lake Center
04:05PM 41.9292 -109.3911 82° East 474 545 39,000  Level Salt Lake Center
04:06PM 41.9486 -109.2225 81° East 475 547 39,000  Level Salt Lake Center
04:07PM 41.9697 -109.0272 82° East 473 544 39,000  Level Salt Lake Center
04:08PM 41.9883 -108.8600 81° East 471 542 39,000  Level Salt Lake Center
04:09PM 42.0064 -108.6936 82° East 469 540 39,000  Level Salt Lake Center
04:10PM 42.0278 -108.4986 82° East 471 542 39,000  Level Salt Lake Center
04:11PM 42.0453 -108.3311 82° East 472 543 39,000  Level Salt Lake Center
04:12PM 42.0653 -108.1344 82° East 474 545 39,000  Level Salt Lake Center
04:13PM 42.0783 -107.9617 84° East 482 555 39,000  Level Salt Lake Center
04:14PM 42.0961 -107.7931 82° East 480 552 39,000  Level Salt Lake Center
04:15PM 42.1153 -107.5997 82° East 469 540 39,000  Level Salt Lake Center
04:16PM 42.1294 -107.4586 82° East 475 547 39,000  Level Denver Center
04:17PM 42.1469 -107.2608 83° East 475 547 39,000  Level Denver Center
04:18PM 42.1636 -107.0928 82° East 473 544 39,000  Level Denver Center
04:19PM 42.1797 -106.8961 84° East 474 545 39,000  Level Denver Center
04:20PM 42.1944 -106.7278 83° East 473 544 39,000  Level Denver Center
04:21PM 42.2111 -106.5339 83° East 470 541 39,000  Level Denver Center
04:22PM 42.2261 -106.3600 83° East 464 534 39,000  Level Denver Center
04:23PM 42.2411 -106.1953 83° East 463 533 39,000  Level Denver Center
04:24PM 42.2572 -106.0022 84° East 464 534 39,000  Level Denver Center
04:25PM 42.2694 -105.8372 84° East 463 533 39,000  Level Denver Center
04:26PM 42.2858 -105.6439 83° East 465 535 39,000  Level Denver Center
04:27PM 42.2986 -105.4786 84° East 465 535 39,000  Level Denver Center
04:28PM 42.3114 -105.3125 84° East 466 536 39,000  Level Denver Center
04:29PM 42.3250 -105.1189 85° East 466 536 39,000  Level Denver Center
04:31PM 42.3383 -104.9544 84° East 463 533 39,000  Level Denver Center
04:32PM 42.3506 -104.7600 85° East 472 543 39,000  Level Denver Center
04:33PM 42.3608 -104.5933 85° East 471 542 39,000  Level Denver Center
04:34PM 42.3747 -104.3975 84° East 475 547 39,000  Level Denver Center
04:35PM 42.3892 -104.2036 84° East 470 541 39,000  Level Denver Center
04:36PM 42.4006 -104.0364 85° East 471 542 39,000  Level Denver Center
04:37PM 42.4128 -103.8406 85° East 471 542 39,000  Level Denver Center
04:38PM 42.4239 -103.6731 85° East 469 540 39,000  Level Denver Center
04:39PM 42.4350 -103.5033 85° East 474 545 39,000  Level Denver Center
04:40PM 42.4444 -103.3069 86° East 471 542 39,000  Level Denver Center
04:41PM 42.4550 -103.1367 85° East 474 545 39,000  Level Denver Center
04:42PM 42.4656 -102.9381 86° East 476 548 39,000  Level Denver Center
04:43PM 42.4778 -102.7667 84° East 479 551 39,000  Level Denver Center
04:44PM 42.4878 -102.5664 86° East 479 551 39,000  Level Denver Center
04:45PM 42.4961 -102.3958 86° East 475 547 39,000  Level Denver Center
04:46PM 42.5050 -102.1942 87° East 481 554 39,000  Level Denver Center
04:47PM 42.5136 -102.0222 86° East 480 552 39,000  Level Denver Center
04:48PM 42.5225 -101.8206 87° East 481 554 39,000  Level Denver Center
04:49PM 42.5283 -101.6567 87° East 480 552 39,000  Level Denver Center
04:50PM 42.5378 -101.4542 86° East 481 554 39,000  Level Denver Center
04:51PM 42.5453 -101.2789 87° East 484 557 39,000  Level Denver Center
04:52PM 42.5522 -101.0758 87° East 483 556 39,000  Level Denver Center
04:53PM 42.5589 -100.9017 87° East 482 555 39,000  Level Denver Center
04:54PM 42.5669 -100.6967 87° East 486 559 39,000  Level Denver Center
04:55PM 42.5725 -100.5214 87° East 486 559 39,000  Level Denver Center
04:56PM 42.5781 -100.3469 87° East 485 558 39,000  Level Denver Center
04:57PM 42.5850 -100.1408 87° East 487 560 39,000  Level Denver Center
04:58PM 42.5878 -100.0044 88° East 486 559 39,000  Level Minneapolis Center
04:59PM 42.5936 -99.8208 87° East 486 559 39,000  Level Minneapolis Center
05:00PM 42.5983 -99.6378 88° East 486 559 39,000  Level Minneapolis Center
05:01PM 42.6044 -99.4119 88° East 488 562 39,000  Level Denver Center
05:02PM 42.6078 -99.2278 89° East 492 566 39,000  Level Minneapolis Center
05:03PM 42.5903 -99.0439 97° East 493 567 39,000  Level Minneapolis Center
05:04PM 42.5714 -98.8608 98° East 490 564 39,000  Level Minneapolis Center
05:05PM 42.5544 -98.6758 97° East 493 567 39,000  Level Minneapolis Center
05:06PM 42.5367 -98.4925 97° East 491 565 39,000  Level Minneapolis Center
05:07PM 42.5183 -98.3081 98° East 492 566 39,000  Level Minneapolis Center
05:08PM 42.5000 -98.1222 98° East 495 570 39,000  Level Minneapolis Center
05:10PM 42.4792 -97.9008 97° East 494 568 39,000  Level Minneapolis Center
05:11PM 42.4586 -97.6844 97° East 494 568 39,000  Level Minneapolis Center
05:12PM 42.4564 -97.4992 91° East 494 568 39,000  Level Minneapolis Center
05:13PM 42.4703 -97.3150 84° East 490 564 39,000  Level Minneapolis Center
05:14PM 42.4794 -97.1294 86° East 492 566 39,000  Level Minneapolis Center
05:15PM 42.4858 -96.9469 87° East 488 562 39,000  Level Minneapolis Center
05:16PM 42.4953 -96.7219 87° East 493 567 39,000  Level Minneapolis Center
05:17PM 42.5072 -96.5350 85° East 496 571 39,000  Level Minneapolis Center
05:18PM 42.5172 -96.3497 86° East 493 567 39,000  Level Minneapolis Center
05:19PM 42.5275 -96.1625 86° East 495 570 39,000  Level Minneapolis Center
05:20PM 42.5375 -95.9761 86° East 494 568 39,000  Level Minneapolis Center
05:21PM 42.5461 -95.7869 86° East 496 571 39,000  Level Minneapolis Center
05:22PM 42.5561 -95.6047 86° East 493 567 39,000  Level Minneapolis Center
05:23PM 42.5647 -95.4183 86° East 493 567 39,000  Level Minneapolis Center
05:24PM 42.5747 -95.1931 86° East 496 571 39,000  Level Minneapolis Center
05:25PM 42.5828 -95.0067 87° East 495 570 39,000  Level Minneapolis Center
05:26PM 42.5908 -94.8197 87° East 496 571 39,000  Level Minneapolis Center
05:27PM 42.5989 -94.6325 87° East 497 572 39,000  Level Minneapolis Center
05:28PM 42.6039 -94.4608 88° East 496 571 39,000  Level Minneapolis Center
05:29PM 42.6106 -94.2375 88° East 498 573 39,000  Level Minneapolis Center
05:30PM 42.6119 -94.0531 89° East 496 571 39,000  Level Minneapolis Center
05:31PM 42.6136 -93.8656 89° East 500 575 39,000  Level Minneapolis Center
05:32PM 42.6147 -93.6794 89° East 500 575 39,000  Level Minneapolis Center
05:33PM 42.6156 -93.4928 90° East 499 574 39,000  Level Minneapolis Center
05:34PM 42.6167 -93.3053 89° East 501 577 39,000  Level Minneapolis Center
05:35PM 42.6164 -93.0800 90° East 503 579 39,000  Level Minneapolis Center
05:36PM 42.6158 -92.9669 90° East 500 575 39,000  Level Chicago Center
05:37PM 42.6158 -92.7772 90° East 507 583 39,000  Level Chicago Center
05:38PM 42.6147 -92.5508 90° East 506 582 39,000  Level Chicago Center
05:39PM 42.6131 -92.3631 91° East 505 581 39,000  Level Chicago Center
05:40PM 42.6119 -92.1753 90° East 504 580 39,000  Level Chicago Center
05:41PM 42.6092 -91.9900 91° East 501 577 39,000  Level Chicago Center
05:42PM 42.6069 -91.8047 91° East 501 577 39,000  Level Chicago Center
05:43PM 42.6042 -91.5844 91° East 502 578 39,000  Level Chicago Center
05:44PM 42.6025 -91.4017 91° East 500 575 39,000  Level Chicago Center
05:45PM 42.6000 -91.2178 91° East 496 571 39,000  Level Chicago Center
05:47PM 42.5958 -90.9939 91° East 502 578 39,000  Level Chicago Center
05:48PM 42.5928 -90.8086 91° East 497 572 39,000  Level Chicago Center
05:49PM 42.5886 -90.6225 92° East 498 573 39,000  Level Chicago Center
05:50PM 42.5836 -90.4361 92° East 500 575 39,000  Level Chicago Center
05:51PM 42.5800 -90.2500 91° East 498 573 39,000  Level Chicago Center
05:52PM 42.5747 -90.0261 92° East 501 577 39,000  Level Chicago Center
05:53PM 42.5694 -89.8411 92° East 498 573 39,000  Level Chicago Center
05:54PM 42.5639 -89.6531 92° East 501 577 39,000  Level Chicago Center
05:55PM 42.5578 -89.4664 92° East 501 577 39,000  Level Chicago Center
05:56PM 42.5508 -89.2803 93° East 500 575 39,000  Level Chicago Center
05:57PM 42.5439 -89.0519 92° East 500 575 39,000  Level Chicago Center
05:58PM 42.5358 -88.8661 93° East 497 572 39,000  Level Chicago Center
05:59PM 42.5294 -88.6775 93° East 501 577 39,000  Level Chicago Center
06:00PM 42.5214 -88.4908 93° East 498 573 39,000  Level Chicago Center
06:01PM 42.5144 -88.3033 93° East 499 574 39,000  Level Chicago Center
06:02PM 42.5039 -88.0778 94° East 501 577 39,000  Level Chicago Center
06:03PM 42.4994 -87.8922 92° East 498 573 39,000  Level Chicago Center
06:04PM 42.5000 -87.7061 90° East 496 571 39,000  Level Chicago Center
06:05PM 42.4989 -87.5192 90° East 498 573 39,000  Level Chicago Center
06:06PM 42.4981 -87.3328 90° East 497 572 39,000  Level Chicago Center
06:07PM 42.4967 -87.1450 91° East 499 574 39,000  Level Chicago Center
06:08PM 42.4950 -86.9211 91° East 499 574 39,000  Level Chicago Center
06:09PM 42.4928 -86.7350 91° East 498 573 39,000  Level Chicago Center
06:10PM 42.4908 -86.5611 91° East 497 572 39,000  Level Chicago Center
06:11PM 42.4883 -86.3753 91° East 498 573 39,000  Level Chicago Center
06:12PM 42.4842 -86.1514 91° East 500 575 39,000  Level Chicago Center
06:13PM 42.4803 -85.9656 92° East 499 574 39,000  Level Chicago Center
06:14PM 42.4781 -85.7825 91° East 493 567 39,000  Level Chicago Center
06:15PM 42.4744 -85.5983 91° East 494 568 39,000  Level Chicago Center
06:17PM 42.4711 -85.4111 91° East 499 574 39,000  Level Chicago Center
06:18PM 42.4672 -85.1908 91° East 494 568 39,000  Level Chicago Center
06:19PM 42.4628 -85.0081 92° East 488 562 39,000  Level Chicago Center
06:20PM 42.4575 -84.8253 92° East 489 563 39,000  Level Chicago Center
06:21PM 42.4522 -84.6442 92° East 487 560 39,000  Level Chicago Center
06:22PM 42.4469 -84.4622 92° East 487 560 39,000  Level Chicago Center
06:23PM 42.4400 -84.2431 92° East 487 560 39,000  Level Chicago Center
06:24PM 42.4347 -84.0600 92° East 488 562 39,000  Level Chicago Center
06:25PM 42.4286 -83.8758 93° East 491 565 39,000  Level Chicago Center
06:26PM 42.4219 -83.7111 93° East 484 557 39,000  Level Cleveland Center
06:27PM 42.4106 -83.5053 94° East 484 557 39,000  Level Cleveland Center
06:28PM 42.4042 -83.3417 93° East 493 567 39,000  Level Cleveland Center
06:29PM 42.3964 -83.1333 93° East 493 567 39,000  Level Cleveland Center
06:30PM 42.3900 -82.9503 93° East 498 573 39,000  Level Cleveland Center
06:31PM 42.3789 -82.7700 95° East 493 567 39,000  Level Cleveland Center
06:32PM 42.3742 -82.5814 92° East 493 567 39,000  Level Cleveland Center
06:33PM 42.3644 -82.3986 94° East 493 567 39,000  Level Cleveland Center
06:34PM 42.3569 -82.2100 93° East 493 567 39,000  Level Cleveland Center
06:35PM 42.3511 -82.0189 92° East 498 573 39,000  Level Cleveland Center
06:36PM 42.3428 -81.8361 93° East 498 573 39,000  Level Cleveland Center
06:37PM 42.3344 -81.6506 93° East 493 567 39,000  Level Cleveland Center
06:38PM 42.3256 -81.4650 94° East 494 568 39,000  Level Cleveland Center
06:39PM 42.3164 -81.2767 94° East 494 568 39,000  Level Cleveland Center
06:40PM 42.3069 -81.0886 94° East 500 575 39,000  Level Cleveland Center
06:41PM 42.2992 -80.9256 94° East 500 575 39,000  Level Cleveland Center
06:42PM 42.2892 -80.7458 94° East 494 568 39,000  Level Cleveland Center
06:43PM 42.2789 -80.5608 94° East 494 568 39,000  Level Cleveland Center
06:44PM 42.2683 -80.3811 94° East 483 556 39,000  Level Cleveland Center
06:45PM 42.2575 -80.2017 95° East 478 550 39,000 -180 Level Cleveland Center
06:46PM 42.2461 -80.0081 94° East 478 550 38,700 -720 Descending Cleveland Center
06:47PM 42.2347 -79.8203 95° East 485 558 37,600 -900 Descending Cleveland Center
06:48PM 42.2231 -79.6439 95° East 485 558 37,000 -300 Descending Cleveland Center
06:49PM 42.2108 -79.4533 95° East 490 564 37,000  Level Cleveland Center
06:50PM 42.2006 -79.2714 94° East 490 564 37,000  Level Cleveland Center
06:51PM 42.1794 -79.0869 99° East 490 564 37,000  Level Cleveland Center
06:52PM 42.1375 -78.9058 107° East 495 570 37,000  Level Cleveland Center
06:53PM 42.0931 -78.7308 109° East 495 570 37,000  Level Cleveland Center
06:54PM 42.0442 -78.5533 110° East 500 575 37,000  Level Cleveland Center
06:55PM 41.9722 -78.2669 109° East 503 579 37,000  Level New York Center
06:56PM 41.9250 -78.0886 110° East 503 579 37,000  Level New York Center
06:57PM 41.8778 -77.9053 109° East 508 585 37,000  Level New York Center
06:58PM 41.8319 -77.7303 109° East 508 585 37,000  Level New York Center
06:59PM 41.7861 -77.5503 109° East 508 585 37,000  Level New York Center
07:00PM 41.7400 -77.3733 109° East 508 585 37,000  Level New York Center
07:01PM 41.6892 -77.1958 111° Southeast 503 579 37,000  Level New York Center
07:02PM 41.6422 -77.0219 110° East 503 579 37,000  Level New York Center
07:03PM 41.5950 -76.8483 110° East 503 579 37,000  Level New York Center
07:04PM 41.5461 -76.6611 109° East 503 579 37,000  Level New York Center
07:05PM 41.5003 -76.4936 110° East 498 573 37,000  Level New York Center
07:06PM 41.4608 -76.3544 111° Southeast 493 567 37,000 -60 Level New York Center
07:07PM 41.4094 -76.1622 110° East 499 574 36,900 -780 Descending New York Center
07:08PM 41.3586 -75.9922 112° Southeast 499 574 35,500 -2,460 Descending New York Center
07:09PM 41.3097 -75.8256 111° Southeast 491 565 32,000 -3,600 Descending New York Center
07:10PM 41.2569 -75.6447 111° Southeast 491 565 28,300 -3,480 Descending New York Center
07:11PM 41.2014 -75.4725 113° Southeast 510 587 25,100 -2,640 Descending New York Center
07:12PM 41.1453 -75.3089 114° Southeast 498 573 23,100 -1,080 Descending New York Center
07:13PM 41.0911 -75.1456 114° Southeast 487 560 23,000 -60 Descending New York Center
07:14PM 41.0344 -74.9853 115° Southeast 487 560 23,000 -60 Level New York Center
07:15PM 40.9903 -74.8175 109° East 482 555 22,900 -360 Descending New York Center
07:16PM 40.9692 -74.6403 99° East 477 549 22,300 -1,500 Descending New York Center
07:17PM 40.9519 -74.4608 97° East 477 549 20,000 -1,440 Descending New York Center
07:18PM 40.9336 -74.3086 99° East 457 526 19,500 -480 Descending New York Center
07:19PM 40.9167 -74.1733 99° East 414 476 19,100 -420 Descending New York Center
07:21PM 40.8000 -74.0833 150° Southeast 334 384 18,600 -900 Descending New York TRACON
07:22PM 40.7167 -74.0500 163° South 330 380 17,100 -1,680 Descending New York TRACON
07:23PM 40.6333 -74.0167 163° South 334 384 15,500 -1,500 Descending New York TRACON
07:24PM 40.5667 -73.9500 143° Southeast 336 387 14,100 -1,440 Descending New York TRACON
07:25PM 40.5000 -73.8500 131° Southeast 327 376 12,700 -1,560 Descending New York TRACON
07:26PM 40.4500 -73.7833 135° Southeast 312 359 11,200 -2,580 Descending New York TRACON
07:27PM 40.4333 -73.6667 101° East 338 389 7,800 -2,700 Descending New York TRACON
07:28PM 40.4667 -73.5500 69° East 316 364 5,600 -1,800 Descending New York TRACON
07:29PM 40.5333 -73.5000 30° Northeast 262 302 4,100 -840 Descending New York TRACON
07:30PM 40.6000 -73.4500 30° Northeast 274 315 4,000 -60 Descending New York TRACON
07:31PM 40.6667 -73.4000 30° Northeast 273 314 4,000  Level New York TRACON
07:32PM 40.7333 -73.3500 30° Northeast 275 316 4,000  Level New York TRACON
07:33PM 40.7833 -73.4167 315° West 253 291 4,000 -540 Level New York TRACON
07:34PM 40.8000 -73.4833 288° West 242 278 3,000 -1,020 Descending New York TRACON
07:35PM 40.8000 -73.5833 270° West 250 288 2,000 -480 Descending New York TRACON
07:36PM 40.7667 -73.6500 237° Southwest 202 232 2,000 -120 Level New York TRACON
07:37PM 40.7167 -73.7000 217° Southwest 190 219 1,800 -600 Descending New York TRACON
07:38PM 40.6833 -73.7333 217° Southwest 166 191 800 -1,020 Descending New York TRACON